Time;durP1;ratioP1;P1;durP2;ratioP2;P2;SDS_P1;SDS_P2;PMS_P1;PMS_P2;Temp;Humidity;BMP_temperature;BMP_pressure;BME280_temperature;BME280_humidity;BME280_pressure;Samples;Min_cycle;Max_cycle;Signal;HPM_P1;HPM_P2
2022/01/28 00:01:57;;;;;;;25.50;12.23;;;;;;;;;;5054708;28;20072;-68
2022/01/28 00:04:24;;;;;;;26.70;13.40;;;;;;;;;;5055822;28;20064;-68
2022/01/28 00:06:55;;;;;;;26.77;13.75;;;;;;;;;;5055727;28;20075;-68
2022/01/28 00:09:25;;;;;;;26.10;12.85;;;;;;;;;;5056051;28;20053;-69
2022/01/28 00:11:53;;;;;;;22.50;12.05;;;;;;;;;;5054404;28;20048;-68
2022/01/28 00:39:51;;;;;;;23.98;12.45;;;;;;;;;;5055213;28;20458;-68
2022/01/28 00:42:19;;;;;;;20.88;10.88;;;;;;;;;;5053604;28;20045;-68
2022/01/28 00:44:47;;;;;;;24.73;12.23;;;;;;;;;;5053614;28;20063;-68
2022/01/28 00:47:19;;;;;;;24.52;11.10;;;;;;;;;;5055334;28;20041;-68
2022/01/28 00:49:48;;;;;;;18.55;10.35;;;;;;;;;;5054106;28;20048;-68
2022/01/28 00:52:16;;;;;;;21.48;10.88;;;;;;;;;;5054562;28;20044;-68
2022/01/28 00:54:46;;;;;;;22.10;11.48;;;;;;;;;;5055256;28;20051;-68
2022/01/28 00:57:14;;;;;;;23.60;11.32;;;;;;;;;;5053554;28;20560;-68
2022/01/28 00:59:47;;;;;;;22.52;10.95;;;;;;;;;;5054718;28;20052;-68
2022/01/28 01:02:20;;;;;;;19.23;9.82;;;;;;;;;;5053462;28;20049;-68
2022/01/28 01:04:48;;;;;;;18.90;10.27;;;;;;;;;;5054702;28;20049;-68
2022/01/28 01:07:17;;;;;;;17.77;9.10;;;;;;;;;;5054539;28;20063;-68
2022/01/28 01:09:50;;;;;;;19.77;9.98;;;;;;;;;;5054681;28;20048;-68
2022/01/28 01:12:20;;;;;;;20.55;9.70;;;;;;;;;;5054909;28;20051;-68
2022/01/28 01:14:48;;;;;;;18.48;9.60;;;;;;;;;;5054314;28;20041;-68
2022/01/28 01:19:50;;;;;;;19.88;9.73;;;;;;;;;;5055015;28;20067;-68
2022/01/28 01:22:20;;;;;;;19.38;10.10;;;;;;;;;;5052809;28;20053;-68
2022/01/28 01:25:03;;;;;;;16.42;9.00;;;;;;;;;;5053215;28;20074;-68
2022/01/28 01:27:32;;;;;;;16.80;9.32;;;;;;;;;;5054213;28;20440;-68
2022/01/28 01:30:01;;;;;;;15.88;8.95;;;;;;;;;;5054171;28;20091;-68
2022/01/28 01:32:31;;;;;;;14.75;8.38;;;;;;;;;;5052851;28;20118;-68
2022/01/28 01:35:00;;;;;;;18.05;9.48;;;;;;;;;;5052890;28;20051;-68
2022/01/28 01:37:32;;;;;;;17.75;8.95;;;;;;;;;;5053049;28;20519;-68
2022/01/28 01:40:02;;;;;;;16.38;8.75;;;;;;;;;;5053946;28;20048;-68
2022/01/28 01:42:43;;;;;;;15.60;8.80;;;;;;;;;;5052785;28;20488;-68
2022/01/28 01:54:01;;;;;;;17.10;9.52;;;;;;;;;;5053885;28;20044;-68
2022/01/28 01:56:29;;;;;;;14.63;8.32;;;;;;;;;;5052157;28;20526;-68
2022/01/28 01:59:22;;;;;;;16.05;8.65;;;;;;;;;;5053569;28;20049;-68
2022/01/28 02:01:50;;;;;;;15.40;8.77;;;;;;;;;;5053464;28;20490;-68
2022/01/28 02:04:45;;;;;;;16.75;8.63;;;;;;;;;;5053676;28;20053;-68
2022/01/28 02:07:38;;;;;;;15.82;9.10;;;;;;;;;;5053902;28;20065;-68
2022/01/28 02:10:11;;;;;;;16.52;9.30;;;;;;;;;;5052417;28;20517;-68
2022/01/28 02:12:52;;;;;;;19.98;9.73;;;;;;;;;;5052276;28;20499;-68
2022/01/28 02:15:21;;;;;;;17.85;9.50;;;;;;;;;;5053576;28;20045;-68
2022/01/28 02:17:49;;;;;;;17.48;9.32;;;;;;;;;;5051846;28;20037;-68
2022/01/28 02:20:48;;;;;;;16.63;8.75;;;;;;;;;;5053326;28;20044;-68
2022/01/28 02:23:22;;;;;;;19.58;9.50;;;;;;;;;;5053325;28;20517;-68
2022/01/28 02:25:50;;;;;;;20.10;10.10;;;;;;;;;;5051832;28;20084;-68
2022/01/28 02:28:21;;;;;;;18.13;9.73;;;;;;;;;;5053070;28;20047;-68
2022/01/28 02:31:18;;;;;;;16.60;9.55;;;;;;;;;;5053663;28;20396;-68
2022/01/28 02:33:54;;;;;;;20.90;10.30;;;;;;;;;;5053369;28;20045;-68
2022/01/28 02:36:25;;;;;;;20.90;10.50;;;;;;;;;;5053082;28;20119;-68
2022/01/28 02:39:23;;;;;;;17.85;9.50;;;;;;;;;;5053152;28;20037;-68
2022/01/28 02:42:28;;;;;;;20.33;9.75;;;;;;;;;;5053040;28;20041;-68
2022/01/28 02:45:03;;;;;;;17.95;9.43;;;;;;;;;;5051525;28;20041;-68
2022/01/28 02:47:37;;;;;;;17.93;9.20;;;;;;;;;;5035892;28;20057;-68
2022/01/28 02:50:10;;;;;;;18.05;9.32;;;;;;;;;;5085144;28;20061;-68
2022/01/28 02:52:51;;;;;;;16.67;9.32;;;;;;;;;;5051821;28;20048;-68
2022/01/28 02:55:18;;;;;;;15.80;9.43;;;;;;;;;;5051750;28;20555;-68
2022/01/28 02:58:18;;;;;;;16.23;9.32;;;;;;;;;;5052679;28;20052;-68
2022/01/28 03:00:47;;;;;;;19.02;9.70;;;;;;;;;;5052837;28;20494;-68
2022/01/28 03:03:22;;;;;;;17.52;9.57;;;;;;;;;;5052660;28;20063;-68
2022/01/28 03:05:51;;;;;;;15.88;8.00;;;;;;;;;;5053059;28;20131;-68
2022/01/28 03:08:24;;;;;;;15.07;8.18;;;;;;;;;;5053103;28;20049;-68
2022/01/28 03:11:30;;;;;;;18.45;9.35;;;;;;;;;;5051299;28;20131;-68
2022/01/28 03:15:02;;;;;;;15.38;8.27;;;;;;;;;;5056463;28;20476;-68
2022/01/28 03:19:54;;;;;;;14.25;8.00;;;;;;;;;;5056603;28;20037;-68
2022/01/28 03:22:27;;;;;;;17.15;8.68;;;;;;;;;;5056293;28;20045;-68
2022/01/28 03:24:58;;;;;;;15.25;7.68;;;;;;;;;;5056588;28;20049;-68
2022/01/28 03:28:10;;;;;;;14.90;8.30;;;;;;;;;;5056380;28;20488;-68
2022/01/28 03:30:23;;;;;;;15.07;8.25;;;;;;;;;;5055930;28;20051;-68
2022/01/28 03:32:52;;;;;;;12.43;7.45;;;;;;;;;;5056234;28;20041;-68
2022/01/28 03:35:33;;;;;;;14.35;7.68;;;;;;;;;;5056137;28;20068;-68
2022/01/28 03:38:04;;;;;;;11.45;7.05;;;;;;;;;;5056373;28;20037;-68
2022/01/28 03:40:36;;;;;;;15.43;7.63;;;;;;;;;;5056317;28;20391;-68
2022/01/28 03:43:11;;;;;;;12.70;6.85;;;;;;;;;;5056203;28;20052;-68
2022/01/28 03:45:42;;;;;;;14.93;7.80;;;;;;;;;;5056169;28;20431;-68
2022/01/28 03:48:10;;;;;;;13.75;6.88;;;;;;;;;;5056043;28;20083;-68
2022/01/28 03:50:41;;;;;;;14.13;7.65;;;;;;;;;;5054542;28;20041;-68
2022/01/28 03:53:08;;;;;;;11.90;6.97;;;;;;;;;;5055790;28;20053;-68
2022/01/28 03:55:36;;;;;;;12.52;6.68;;;;;;;;;;5055539;28;20044;-69
2022/01/28 03:58:06;;;;;;;10.73;6.20;;;;;;;;;;5055834;28;20044;-68
2022/01/28 04:00:35;;;;;;;13.98;6.80;;;;;;;;;;5055611;28;20041;-68
2022/01/28 04:13:49;;;;;;;11.27;6.50;;;;;;;;;;5055918;28;20056;-68
2022/01/28 04:18:51;;;;;;;14.10;6.47;;;;;;;;;;5055455;28;20047;-68
2022/01/28 04:21:22;;;;;;;12.77;7.18;;;;;;;;;;5055807;28;20522;-68
2022/01/28 04:23:52;;;;;;;11.65;6.35;;;;;;;;;;5055225;28;20068;-68
2022/01/28 04:26:20;;;;;;;11.82;6.70;;;;;;;;;;5055247;28;20041;-68
2022/01/28 04:28:50;;;;;;;14.05;7.53;;;;;;;;;;5055563;28;20037;-68
2022/01/28 04:31:21;;;;;;;12.77;7.35;;;;;;;;;;5054328;28;20415;-68
2022/01/28 04:34:13;;;;;;;14.63;6.97;;;;;;;;;;5055328;28;20203;-68
2022/01/28 04:45:52;;;;;;;11.07;6.85;;;;;;;;;;5055193;28;20413;-67
2022/01/28 04:49:13;;;;;;;11.93;6.68;;;;;;;;;;5055398;28;20041;-67
2022/01/28 04:51:31;;;;;;;;;;;;;;;;;;5055047;28;20124;-67
2022/01/28 04:54:14;;;;;;;14.13;8.18;;;;;;;;;;5054284;28;20027;-68
2022/01/28 05:05:09;;;;;;;17.20;8.55;;;;;;;;;;5054557;28;20049;-68
2022/01/28 05:16:14;;;;;;;14.68;7.32;;;;;;;;;;5054097;28;20049;-68
2022/01/28 05:31:38;;;;;;;16.42;7.55;;;;;;;;;;5054032;28;20509;-68
2022/01/28 05:37:42;;;;;;;13.18;7.47;;;;;;;;;;5012721;28;20414;-68
2022/01/28 05:40:34;;;;;;;13.18;7.22;;;;;;;;;;5053735;28;20533;-68
2022/01/28 05:43:05;;;;;;;14.43;7.72;;;;;;;;;;5052617;28;20476;-68
2022/01/28 05:45:33;;;;;;;13.70;7.25;;;;;;;;;;5053947;28;20074;-68
2022/01/28 05:48:03;;;;;;;16.95;8.63;;;;;;;;;;5053907;28;20128;-68
2022/01/28 05:50:32;;;;;;;16.52;9.63;;;;;;;;;;5054100;28;20048;-68
2022/01/28 05:53:07;;;;;;;22.73;11.07;;;;;;;;;;5052696;28;20053;-68
2022/01/28 05:55:35;;;;;;;18.20;10.38;;;;;;;;;;5053217;28;20061;-68
2022/01/28 05:58:06;;;;;;;19.30;9.80;;;;;;;;;;5053875;28;20454;-68
2022/01/28 06:00:37;;;;;;;23.38;11.98;;;;;;;;;;5052382;28;20045;-68
2022/01/28 06:03:12;;;;;;;24.42;13.13;;;;;;;;;;5054007;28;20068;-67
2022/01/28 06:05:47;;;;;;;20.55;11.10;;;;;;;;;;5053156;28;20069;-68
2022/01/28 06:08:20;;;;;;;17.20;9.68;;;;;;;;;;5053903;28;20064;-68
2022/01/28 06:10:51;;;;;;;23.45;11.55;;;;;;;;;;5053446;28;20059;-68
2022/01/28 06:13:29;;;;;;;26.25;12.55;;;;;;;;;;5053600;28;20065;-68
2022/01/28 06:16:02;;;;;;;14.40;9.27;;;;;;;;;;5052083;28;20373;-68
2022/01/28 06:18:31;;;;;;;23.15;12.52;;;;;;;;;;5033620;28;20045;-68
2022/01/28 06:21:23;;;;;;;18.58;10.43;;;;;;;;;;5032825;28;20045;-68
2022/01/28 06:24:16;;;;;;;21.23;11.07;;;;;;;;;;5033217;28;20037;-67
2022/01/28 06:26:47;;;;;;;22.27;12.30;;;;;;;;;;5033394;28;20134;-68
2022/01/28 06:29:19;;;;;;;18.15;11.07;;;;;;;;;;5032010;28;20068;-68
2022/01/28 06:31:47;;;;;;;16.35;9.68;;;;;;;;;;5015674;28;20087;-68
2022/01/28 06:34:21;;;;;;;22.30;12.43;;;;;;;;;;5033592;28;20034;-68
2022/01/28 06:36:51;;;;;;;19.73;10.80;;;;;;;;;;5031728;28;20049;-68
2022/01/28 06:39:20;;;;;;;17.50;9.98;;;;;;;;;;5033061;28;20049;-68
2022/01/28 06:41:52;;;;;;;14.57;7.97;;;;;;;;;;5031884;28;20033;-68
2022/01/28 06:44:20;;;;;;;17.50;9.88;;;;;;;;;;5031671;28;20500;-68
2022/01/28 06:46:48;;;;;;;17.50;8.95;;;;;;;;;;5033288;28;20084;-68
2022/01/28 06:49:18;;;;;;;15.43;8.27;;;;;;;;;;5037242;28;20131;-68
2022/01/28 06:52:11;;;;;;;14.77;8.20;;;;;;;;;;5035946;28;20510;-68
2022/01/28 06:54:44;;;;;;;16.02;8.93;;;;;;;;;;5037346;28;20072;-68
2022/01/28 06:57:12;;;;;;;15.65;9.05;;;;;;;;;;5035729;28;20148;-68
2022/01/28 06:59:40;;;;;;;17.23;9.45;;;;;;;;;;5036950;28;20046;-68
2022/01/28 07:02:08;;;;;;;17.27;9.13;;;;;;;;;;5036323;28;20065;-68
2022/01/28 07:04:36;;;;;;;32.83;17.08;;;;;;;;;;5037127;28;20042;-67
2022/01/28 07:07:10;;;;;;;17.80;9.30;;;;;;;;;;5036596;28;20140;-68
2022/01/28 07:09:39;;;;;;;17.27;9.47;;;;;;;;;;5036840;28;20064;-67
2022/01/28 07:12:08;;;;;;;16.77;9.45;;;;;;;;;;5036879;28;20060;-68
2022/01/28 07:14:42;;;;;;;15.75;9.25;;;;;;;;;;5037092;28;20447;-68
2022/01/28 07:17:16;;;;;;;18.53;9.43;;;;;;;;;;5036725;28;20048;-68
2022/01/28 07:19:44;;;;;;;17.27;9.77;;;;;;;;;;5035518;28;20045;-68
2022/01/28 07:22:11;;;;;;;16.65;9.30;;;;;;;;;;5035298;28;20570;-68
2022/01/28 07:24:42;;;;;;;18.67;9.63;;;;;;;;;;5036714;28;20045;-68
2022/01/28 07:27:19;;;;;;;24.60;14.05;;;;;;;;;;5035390;28;20051;-68
2022/01/28 07:29:49;;;;;;;19.90;10.70;;;;;;;;;;5036765;28;20404;-68
2022/01/28 07:32:18;;;;;;;19.90;10.30;;;;;;;;;;5036607;28;20069;-67
2022/01/28 07:34:54;;;;;;;15.25;9.85;;;;;;;;;;5036556;28;20116;-68
2022/01/28 07:37:21;;;;;;;;;;;;;;;;;;5068817;28;20132;-68
2022/01/28 07:39:51;;;;;;;16.42;9.07;;;;;;;;;;5037005;28;20314;-67
2022/01/28 07:42:24;;;;;;;15.30;9.07;;;;;;;;;;5035041;28;20045;-67
2022/01/28 07:44:53;;;;;;;15.48;9.90;;;;;;;;;;5036593;28;20041;-68
2022/01/28 07:47:22;;;;;;;19.52;10.77;;;;;;;;;;5036322;28;20042;-67
2022/01/28 07:49:54;;;;;;;15.77;8.88;;;;;;;;;;5034984;28;20128;-67
2022/01/28 07:52:22;;;;;;;18.65;9.45;;;;;;;;;;5036287;28;20144;-67
2022/01/28 07:58:28;;;;;;;16.27;8.73;;;;;;;;;;5034288;28;20037;-68
2022/01/28 08:00:58;;;;;;;20.23;9.63;;;;;;;;;;5034896;28;20084;-67
2022/01/28 08:03:33;;;;;;;16.80;10.30;;;;;;;;;;5035680;28;20049;-68
2022/01/28 08:06:01;;;;;;;17.58;9.50;;;;;;;;;;5036420;28;20060;-67
2022/01/28 08:08:35;;;;;;;16.75;8.98;;;;;;;;;;5035989;28;20042;-67
2022/01/28 08:11:28;;;;;;;17.50;8.60;;;;;;;;;;5036484;28;20049;-70
2022/01/28 08:13:58;;;;;;;17.02;8.70;;;;;;;;;;5035601;28;20514;-68
2022/01/28 08:16:29;;;;;;;14.00;7.95;;;;;;;;;;5034238;28;20073;-68
2022/01/28 08:18:59;;;;;;;14.57;8.48;;;;;;;;;;5036457;28;20037;-68
2022/01/28 08:21:30;;;;;;;13.70;8.00;;;;;;;;;;5035628;28;20046;-68
2022/01/28 08:24:04;;;;;;;14.02;8.25;;;;;;;;;;5034143;28;20497;-68
2022/01/28 08:26:34;;;;;;;14.35;7.65;;;;;;;;;;5036061;28;20121;-68
2022/01/28 08:29:06;;;;;;;17.30;8.43;;;;;;;;;;5035571;28;20399;-68
2022/01/28 08:31:37;;;;;;;14.48;7.75;;;;;;;;;;5035457;28;20439;-68
2022/01/28 08:34:06;;;;;;;11.80;7.57;;;;;;;;;;5034092;28;20046;-68
2022/01/28 08:36:35;;;;;;;14.90;8.45;;;;;;;;;;5035930;28;20045;-68
2022/01/28 08:39:12;;;;;;;19.42;8.18;;;;;;;;;;5035617;28;20044;-68
2022/01/28 08:41:42;;;;;;;20.17;8.80;;;;;;;;;;5035064;28;20081;-68
2022/01/28 08:44:21;;;;;;;11.45;7.40;;;;;;;;;;5035469;28;20408;-68
2022/01/28 08:46:54;;;;;;;14.18;7.82;;;;;;;;;;5033917;28;20041;-68
2022/01/28 08:49:23;;;;;;;13.93;7.43;;;;;;;;;;5033784;28;20041;-68
2022/01/28 08:51:53;;;;;;;15.20;7.93;;;;;;;;;;5034738;28;20132;-68
2022/01/28 08:54:36;;;;;;;18.50;8.10;;;;;;;;;;5034982;28;20496;-68
2022/01/28 08:57:03;;;;;;;15.68;9.73;;;;;;;;;;5034717;28;20128;-69
2022/01/28 08:59:39;;;;;;;16.55;8.80;;;;;;;;;;5034965;28;20045;-67
2022/01/28 09:02:11;;;;;;;16.33;8.30;;;;;;;;;;5034743;28;20038;-67
2022/01/28 09:04:46;;;;;;;14.35;7.93;;;;;;;;;;5035018;28;20389;-68
2022/01/28 09:07:14;;;;;;;18.70;8.70;;;;;;;;;;5034899;28;20124;-69
2022/01/28 09:09:48;;;;;;;15.73;8.18;;;;;;;;;;5033916;28;20045;-67
2022/01/28 09:14:57;;;;;;;17.42;8.52;;;;;;;;;;5033427;28;20048;-69
2022/01/28 09:17:46;;;;;;;12.98;7.97;;;;;;;;;;5033509;28;20046;-69
2022/01/28 09:20:14;;;;;;;21.10;7.75;;;;;;;;;;5033169;28;20041;-69
2022/01/28 09:22:48;;;;;;;18.15;7.32;;;;;;;;;;5033230;28;20463;-69
2022/01/28 09:25:16;;;;;;;23.95;7.65;;;;;;;;;;5034626;28;20041;-69
2022/01/28 09:27:47;;;;;;;14.57;7.35;;;;;;;;;;5032981;28;20037;-69
2022/01/28 09:30:20;;;;;;;29.23;7.95;;;;;;;;;;5034634;28;20041;-69
2022/01/28 09:32:49;;;;;;;17.15;7.85;;;;;;;;;;5033061;28;20049;-69
2022/01/28 09:35:18;;;;;;;14.02;8.25;;;;;;;;;;5032791;28;20087;-69
2022/01/28 09:37:52;;;;;;;12.88;7.63;;;;;;;;;;5034714;28;20041;-69
2022/01/28 09:40:22;;;;;;;24.88;7.60;;;;;;;;;;5033077;28;20518;-69
2022/01/28 09:42:54;;;;;;;15.68;8.32;;;;;;;;;;5033652;28;20435;-69
2022/01/28 09:45:46;;;;;;;18.30;8.35;;;;;;;;;;5032851;28;20526;-69
2022/01/28 09:48:14;;;;;;;15.25;7.25;;;;;;;;;;5034139;28;20045;-69
2022/01/28 09:50:42;;;;;;;12.60;6.20;;;;;;;;;;5033942;28;20487;-69
2022/01/28 09:53:12;;;;;;;18.08;7.80;;;;;;;;;;5034287;28;20065;-69
2022/01/28 09:55:47;;;;;;;18.17;7.03;;;;;;;;;;5033925;28;20538;-69
2022/01/28 09:58:15;;;;;;;15.77;7.55;;;;;;;;;;5033668;28;20057;-70
2022/01/28 10:00:46;;;;;;;16.33;6.88;;;;;;;;;;5034014;28;20050;-69
2022/01/28 10:03:19;;;;;;;11.85;6.45;;;;;;;;;;5033732;28;20045;-69
2022/01/28 10:05:51;;;;;;;14.90;5.50;;;;;;;;;;5034051;28;20095;-69
2022/01/28 10:08:24;;;;;;;10.00;5.70;;;;;;;;;;5042208;28;20076;-69
2022/01/28 10:10:54;;;;;;;11.45;5.80;;;;;;;;;;5054083;28;20459;-69
2022/01/28 10:16:22;;;;;;;17.35;6.50;;;;;;;;;;5052210;28;20144;-69
2022/01/28 10:19:00;;;;;;;12.43;5.70;;;;;;;;;;5052229;28;20392;-69
2022/01/28 10:21:39;;;;;;;9.98;6.18;;;;;;;;;;5053616;28;20037;-69
2022/01/28 10:24:07;;;;;;;11.95;6.43;;;;;;;;;;5053656;28;20124;-69
2022/01/28 10:30:02;;;;;;;12.95;6.60;;;;;;;;;;5051738;28;20488;-69
2022/01/28 10:32:34;;;;;;;13.23;6.75;;;;;;;;;;5051944;28;20139;-69
2022/01/28 10:35:10;;;;;;;11.45;6.38;;;;;;;;;;5053342;28;20083;-69
2022/01/28 10:37:38;;;;;;;10.73;6.32;;;;;;;;;;5052045;28;20137;-69
2022/01/28 10:40:09;;;;;;;10.20;5.90;;;;;;;;;;5052955;28;20052;-68
2022/01/28 10:42:51;;;;;;;17.77;6.50;;;;;;;;;;5051617;28;20087;-69
2022/01/28 10:45:30;;;;;;;10.70;5.45;;;;;;;;;;5053639;28;20341;-69
2022/01/28 10:48:02;;;;;;;11.88;6.22;;;;;;;;;;5051872;28;20041;-67
2022/01/28 10:50:35;;;;;;;11.35;6.10;;;;;;;;;;5052852;28;20037;-67
2022/01/28 10:53:12;;;;;;;12.55;6.90;;;;;;;;;;5053128;28;20407;-67
2022/01/28 10:55:54;;;;;;;14.20;6.68;;;;;;;;;;5053780;28;20041;-68
2022/01/28 10:58:25;;;;;;;11.85;6.25;;;;;;;;;;5053107;28;20049;-67
2022/01/28 11:00:59;;;;;;;12.48;5.90;;;;;;;;;;5052596;28;20115;-68
2022/01/28 11:03:33;;;;;;;11.68;6.43;;;;;;;;;;5053288;28;20098;-68
2022/01/28 11:06:02;;;;;;;20.48;7.85;;;;;;;;;;5051815;28;20091;-68
2022/01/28 11:08:34;;;;;;;12.80;6.60;;;;;;;;;;5051969;28;20462;-68
2022/01/28 11:11:07;;;;;;;13.15;6.40;;;;;;;;;;5053045;28;20041;-68
2022/01/28 11:13:36;;;;;;;10.95;6.97;;;;;;;;;;5053315;28;20140;-68
2022/01/28 11:16:05;;;;;;;15.80;6.93;;;;;;;;;;5052709;28;20045;-68
2022/01/28 11:18:32;;;;;;;13.35;6.47;;;;;;;;;;5052965;28;20075;-68
2022/01/28 11:21:05;;;;;;;14.77;6.18;;;;;;;;;;5051472;28;20080;-68
2022/01/28 11:23:56;;;;;;;14.68;7.82;;;;;;;;;;5052561;28;20562;-68
2022/01/28 11:26:40;;;;;;;15.05;7.03;;;;;;;;;;5052544;28;20049;-68
2022/01/28 11:29:24;;;;;;;10.40;6.53;;;;;;;;;;5052582;28;20063;-68
2022/01/28 11:31:57;;;;;;;12.40;6.88;;;;;;;;;;5051674;28;20056;-68
2022/01/28 11:34:28;;;;;;;9.93;6.40;;;;;;;;;;5055971;28;20124;-68
2022/01/28 11:36:57;;;;;;;14.38;7.07;;;;;;;;;;5056701;28;20399;-69
2022/01/28 11:39:38;;;;;;;14.57;7.32;;;;;;;;;;5056801;28;20498;-69
2022/01/28 11:42:10;;;;;;;16.77;7.85;;;;;;;;;;5055336;28;20085;-69
2022/01/28 11:44:59;;;;;;;11.90;7.32;;;;;;;;;;5056890;28;20037;-70
2022/01/28 11:47:30;;;;;;;10.57;6.85;;;;;;;;;;5055709;28;20044;-69
2022/01/28 11:50:15;;;;;;;15.93;7.10;;;;;;;;;;5056531;28;20128;-69
2022/01/28 11:53:08;;;;;;;11.90;7.03;;;;;;;;;;5056214;28;20048;-69
2022/01/28 11:56:01;;;;;;;13.20;6.72;;;;;;;;;;5054894;28;20480;-69
2022/01/28 11:58:53;;;;;;;17.20;6.80;;;;;;;;;;5055095;28;20048;-69
2022/01/28 12:01:43;;;;;;;15.25;6.88;;;;;;;;;;5054767;28;20533;-69
2022/01/28 12:04:27;;;;;;;16.83;6.78;;;;;;;;;;5055745;28;20079;-69
2022/01/28 12:06:56;;;;;;;13.27;6.13;;;;;;;;;;5055981;28;20083;-69
2022/01/28 12:09:32;;;;;;;12.13;6.25;;;;;;;;;;5055814;28;20041;-68
2022/01/28 12:12:00;;;;;;;17.73;6.68;;;;;;;;;;5056136;28;20112;-68
2022/01/28 12:14:53;;;;;;;9.55;6.22;;;;;;;;;;5055502;28;20491;-68
2022/01/28 12:17:35;;;;;;;16.35;7.57;;;;;;;;;;5054431;28;20053;-69
2022/01/28 12:20:47;;;;;;;11.40;7.10;;;;;;;;;;5055637;28;20510;-69
2022/01/28 12:23:17;;;;;;;14.13;7.45;;;;;;;;;;5049811;28;20047;-69
2022/01/28 12:26:11;;;;;;;14.15;7.88;;;;;;;;;;5054020;28;20036;-69
2022/01/28 12:29:04;;;;;;;13.50;7.22;;;;;;;;;;5056230;28;20395;-69
2022/01/28 12:31:57;;;;;;;15.32;7.03;;;;;;;;;;5055531;28;20041;-69
2022/01/28 12:34:30;;;;;;;16.27;7.78;;;;;;;;;;5055571;28;20135;-69
2022/01/28 12:37:24;;;;;;;15.38;7.45;;;;;;;;;;5054009;28;20467;-69
2022/01/28 12:39:59;;;;;;;17.90;7.30;;;;;;;;;;5055127;28;20045;-69
2022/01/28 12:42:32;;;;;;;26.02;8.63;;;;;;;;;;5055316;28;20069;-69
2022/01/28 12:45:25;;;;;;;65.95;10.40;;;;;;;;;;5052823;28;20513;-69
2022/01/28 12:47:58;;;;;;;17.50;6.82;;;;;;;;;;5055424;28;20052;-69
2022/01/28 12:50:33;;;;;;;15.57;6.88;;;;;;;;;;5053761;28;20522;-69
2022/01/28 12:53:01;;;;;;;19.02;6.93;;;;;;;;;;5055447;28;20044;-69
2022/01/28 12:55:33;;;;;;;19.20;7.00;;;;;;;;;;5037273;28;20045;-69
2022/01/28 12:58:03;;;;;;;15.68;7.70;;;;;;;;;;5053497;28;20056;-69
2022/01/28 13:00:37;;;;;;;15.20;6.85;;;;;;;;;;5055175;28;20037;-69
2022/01/28 13:06:43;;;;;;;90.07;11.25;;;;;;;;;;5034256;28;20061;-69
2022/01/28 13:09:13;;;;;;;12.85;6.70;;;;;;;;;;5031879;28;20065;-69
2022/01/28 13:12:05;;;;;;;17.40;6.88;;;;;;;;;;5050083;28;20163;-69
2022/01/28 13:18:09;;;;;;;11.90;6.10;;;;;;;;;;5034627;28;20465;-69
2022/01/28 13:24:13;;;;;;;11.85;7.15;;;;;;;;;;5034936;28;20033;-68
2022/01/28 13:26:59;;;;;;;11.45;6.63;;;;;;;;;;5049552;28;20048;-69
2022/01/28 13:29:34;;;;;;;12.75;6.90;;;;;;;;;;5049438;28;20057;-69
2022/01/28 13:32:10;;;;;;;11.68;5.95;;;;;;;;;;5034655;28;20030;-69
2022/01/28 13:34:47;;;;;;;25.20;8.95;;;;;;;;;;5033537;28;20046;-69
2022/01/28 13:37:39;;;;;;;12.73;6.95;;;;;;;;;;5034216;28;20041;-69
2022/01/28 13:40:21;;;;;;;38.65;7.60;;;;;;;;;;5034449;28;20456;-69
2022/01/28 13:43:13;;;;;;;45.53;9.43;;;;;;;;;;5033697;28;20508;-69
2022/01/28 13:45:43;;;;;;;16.23;6.70;;;;;;;;;;5034334;28;20465;-69
2022/01/28 13:48:37;;;;;;;12.48;6.90;;;;;;;;;;5033995;28;20572;-68
2022/01/28 13:51:20;;;;;;;11.68;6.80;;;;;;;;;;5034164;28;20120;-69
2022/01/28 13:54:15;;;;;;;12.90;6.55;;;;;;;;;;5032433;28;20069;-69
2022/01/28 13:56:43;;;;;;;11.57;6.50;;;;;;;;;;5031130;28;20058;-69
2022/01/28 13:59:12;;;;;;;12.90;6.72;;;;;;;;;;5033692;28;20099;-69
2022/01/28 14:01:48;;;;;;;14.77;7.35;;;;;;;;;;5049174;28;20428;-69
2022/01/28 14:04:25;;;;;;;11.90;6.15;;;;;;;;;;5033652;28;20038;-69
2022/01/28 14:07:29;;;;;;;13.75;6.40;;;;;;;;;;5032387;28;20144;-68
2022/01/28 14:10:04;;;;;;;13.68;6.47;;;;;;;;;;4976121;28;20097;-69
2022/01/28 14:12:46;;;;;;;15.43;7.20;;;;;;;;;;5028911;28;20065;-69
2022/01/28 14:15:49;;;;;;;19.20;8.30;;;;;;;;;;5033670;28;20057;-69
2022/01/28 14:18:17;;;;;;;19.23;6.53;;;;;;;;;;5033909;28;20124;-68
2022/01/28 14:20:46;;;;;;;11.73;6.68;;;;;;;;;;5033430;28;20045;-69
2022/01/28 14:23:16;;;;;;;50.35;8.90;;;;;;;;;;5032012;28;20496;-69
2022/01/28 14:25:47;;;;;;;10.48;6.53;;;;;;;;;;5048825;28;20042;-69
2022/01/28 14:30:55;;;;;;;15.52;7.15;;;;;;;;;;5048412;28;20041;-68
2022/01/28 14:33:28;;;;;;;16.90;8.30;;;;;;;;;;5032164;28;20127;-69
2022/01/28 14:36:00;;;;;;;12.95;6.65;;;;;;;;;;5065295;28;20436;-68
2022/01/28 14:38:30;;;;;;;19.92;7.50;;;;;;;;;;5033163;28;20144;-68
2022/01/28 14:41:01;;;;;;;16.55;7.82;;;;;;;;;;5048578;28;20527;-69
2022/01/28 14:43:31;;;;;;;18.75;8.20;;;;;;;;;;5033561;28;20453;-69
2022/01/28 14:46:02;;;;;;;14.85;7.45;;;;;;;;;;5033365;28;20425;-68
2022/01/28 14:48:45;;;;;;;17.30;7.70;;;;;;;;;;5033544;28;20041;-69
2022/01/28 14:51:13;;;;;;;18.27;8.07;;;;;;;;;;5048255;28;20454;-68
2022/01/28 14:54:11;;;;;;;16.90;7.90;;;;;;;;;;5048028;28;20077;-68
2022/01/28 14:56:39;;;;;;;13.23;7.20;;;;;;;;;;5046188;28;20145;-69
2022/01/28 14:59:10;;;;;;;13.23;7.22;;;;;;;;;;5048179;28;20530;-69
2022/01/28 15:01:37;;;;;;;14.60;7.78;;;;;;;;;;5033547;28;20041;-69
2022/01/28 15:04:05;;;;;;;14.15;7.78;;;;;;;;;;5048608;28;20053;-69
2022/01/28 15:06:38;;;;;;;16.38;7.57;;;;;;;;;;5033059;28;20120;-69
2022/01/28 15:09:10;;;;;;;18.10;7.10;;;;;;;;;;5034245;28;20049;-69
2022/01/28 15:14:18;;;;;;;17.42;9.10;;;;;;;;;;5036364;28;20077;-69
2022/01/28 15:16:46;;;;;;;12.52;7.40;;;;;;;;;;5036680;28;20050;-69
2022/01/28 15:19:16;;;;;;;12.73;7.13;;;;;;;;;;5036791;28;20075;-69
2022/01/28 15:21:51;;;;;;;12.38;7.35;;;;;;;;;;5036741;28;20061;-69
2022/01/28 15:24:19;;;;;;;13.77;7.75;;;;;;;;;;5052150;28;20045;-69
2022/01/28 15:27:12;;;;;;;13.73;7.85;;;;;;;;;;5036809;28;20060;-69
2022/01/28 15:30:05;;;;;;;13.20;7.35;;;;;;;;;;5036701;28;20117;-69
2022/01/28 15:43:27;;;;;;;14.73;7.32;;;;;;;;;;5036166;28;20091;-69
2022/01/28 15:45:57;;;;;;;12.88;7.28;;;;;;;;;;5051409;28;20049;-69
2022/01/28 15:48:30;;;;;;;12.15;7.38;;;;;;;;;;5036376;28;20065;-69
2022/01/28 15:50:59;;;;;;;41.20;19.27;;;;;;;;;;5034989;28;20045;-69
2022/01/28 15:53:28;;;;;;;17.40;9.85;;;;;;;;;;5035850;28;20041;-69
2022/01/28 15:56:02;;;;;;;17.60;9.77;;;;;;;;;;5036454;28;20048;-69
2022/01/28 15:58:29;;;;;;;14.70;7.72;;;;;;;;;;5051384;28;20504;-69
2022/01/28 16:00:59;;;;;;;12.82;7.88;;;;;;;;;;5035885;28;20042;-70
2022/01/28 16:03:30;;;;;;;16.33;9.07;;;;;;;;;;5036121;28;20041;-69
2022/01/28 16:06:00;;;;;;;15.82;8.95;;;;;;;;;;5035829;28;20124;-70
2022/01/28 16:08:29;;;;;;;15.18;9.35;;;;;;;;;;5035897;28;20033;-69
2022/01/28 16:19:08;;;;;;;14.23;8.60;;;;;;;;;;5035368;28;20103;-68
2022/01/28 16:21:36;;;;;;;12.63;8.00;;;;;;;;;;5050673;28;20484;-68
2022/01/28 16:24:04;;;;;;;15.32;9.60;;;;;;;;;;5055061;28;20041;-68
2022/01/28 16:26:36;;;;;;;31.33;17.02;;;;;;;;;;5055495;28;20107;-67
2022/01/28 16:29:03;;;;;;;16.17;10.27;;;;;;;;;;5055689;28;20133;-67
2022/01/28 16:31:31;;;;;;;16.88;9.30;;;;;;;;;;5054627;28;20045;-67
2022/01/28 16:34:04;;;;;;;16.50;8.85;;;;;;;;;;5053317;28;20067;-67
2022/01/28 16:36:31;;;;;;;20.02;9.82;;;;;;;;;;5053925;28;20079;-67
2022/01/28 16:39:02;;;;;;;20.00;9.88;;;;;;;;;;5049488;28;20099;-67
2022/01/28 16:41:40;;;;;;;14.68;8.82;;;;;;;;;;5033676;28;20048;-67
2022/01/28 16:44:13;;;;;;;16.10;9.18;;;;;;;;;;5033967;28;20447;-66
2022/01/28 16:46:42;;;;;;;16.67;9.30;;;;;;;;;;5035202;28;20045;-66
2022/01/28 16:49:12;;;;;;;15.93;9.02;;;;;;;;;;5035025;28;20550;-67
2022/01/28 16:51:40;;;;;;;16.70;9.80;;;;;;;;;;5054623;28;20041;-67
2022/01/28 16:54:12;;;;;;;15.10;9.10;;;;;;;;;;5053065;28;20056;-67
2022/01/28 16:56:40;;;;;;;17.73;9.05;;;;;;;;;;5051458;28;20060;-67
2022/01/28 16:59:08;;;;;;;14.90;8.50;;;;;;;;;;5054579;28;20116;-67
2022/01/28 17:01:36;;;;;;;14.43;8.45;;;;;;;;;;5054997;28;20106;-67
2022/01/28 17:04:06;;;;;;;17.95;8.48;;;;;;;;;;5053650;28;20044;-67
2022/01/28 17:06:34;;;;;;;18.58;8.98;;;;;;;;;;5053266;28;20041;-67
2022/01/28 17:09:02;;;;;;;15.77;8.65;;;;;;;;;;5046706;28;20037;-66
2022/01/28 17:14:00;;;;;;;12.88;8.55;;;;;;;;;;5054886;28;20049;-67
2022/01/28 17:16:29;;;;;;;15.63;9.20;;;;;;;;;;5053105;28;20067;-68
2022/01/28 17:18:58;;;;;;;16.02;8.93;;;;;;;;;;5053089;28;20457;-68
2022/01/28 17:21:25;;;;;;;15.32;8.75;;;;;;;;;;5054054;28;20071;-67
2022/01/28 17:23:53;;;;;;;15.85;9.23;;;;;;;;;;5053904;28;20043;-67
2022/01/28 17:26:21;;;;;;;13.25;8.38;;;;;;;;;;5054376;28;20056;-67
2022/01/28 17:28:49;;;;;;;14.05;8.55;;;;;;;;;;5052859;28;20075;-68
2022/01/28 17:31:21;;;;;;;15.88;9.05;;;;;;;;;;5052376;28;20049;-67
2022/01/28 17:34:08;;;;;;;15.68;9.13;;;;;;;;;;5054154;28;20111;-67
2022/01/28 17:36:35;;;;;;;17.15;9.27;;;;;;;;;;5053126;28;20045;-68